sensor_id;sensor_type;location;lat;lon;timestamp;pressure;altitude;pressure_sealevel;temperature;humidity
48668;BME280;34453;52.198;5.004;2023-08-06T00:02:05;100731.91;;;15.72;100.00
48668;BME280;34453;52.198;5.004;2023-08-06T00:04:31;100732.34;;;15.75;100.00
48668;BME280;34453;52.198;5.004;2023-08-06T00:06:56;100732.03;;;15.79;100.00
48668;BME280;34453;52.198;5.004;2023-08-06T00:09:22;100741.72;;;15.78;100.00
48668;BME280;34453;52.198;5.004;2023-08-06T00:11:47;100741.72;;;15.78;100.00
48668;BME280;34453;52.198;5.004;2023-08-06T00:14:13;100743.56;;;15.78;100.00
48668;BME280;34453;52.198;5.004;2023-08-06T00:16:43;100741.09;;;15.76;100.00
48668;BME280;34453;52.198;5.004;2023-08-06T00:19:08;100741.72;;;15.78;100.00
48668;BME280;34453;52.198;5.004;2023-08-06T00:21:34;100733.66;;;15.80;100.00
48668;BME280;34453;52.198;5.004;2023-08-06T00:23:59;100729.81;;;15.82;100.00
48668;BME280;34453;52.198;5.004;2023-08-06T00:26:24;100721.75;;;15.84;100.00
48668;BME280;34453;52.198;5.004;2023-08-06T00:28:50;100721.75;;;15.84;100.00
48668;BME280;34453;52.198;5.004;2023-08-06T00:31:15;100732.31;;;15.84;100.00
48668;BME280;34453;52.198;5.004;2023-08-06T00:33:41;100728.66;;;15.85;100.00
48668;BME280;34453;52.198;5.004;2023-08-06T00:36:06;100722.09;;;15.81;100.00
48668;BME280;34453;52.198;5.004;2023-08-06T00:38:31;100723.47;;;15.77;100.00
48668;BME280;34453;52.198;5.004;2023-08-06T00:40:57;100725.78;;;15.71;100.00
48668;BME280;34453;52.198;5.004;2023-08-06T00:43:22;100721.38;;;15.72;100.00
48668;BME280;34453;52.198;5.004;2023-08-06T00:45:48;100720.19;;;15.74;100.00
48668;BME280;34453;52.198;5.004;2023-08-06T00:48:14;100725.09;;;15.78;100.00
48668;BME280;34453;52.198;5.004;2023-08-06T00:50:39;100720.28;;;15.81;100.00
48668;BME280;34453;52.198;5.004;2023-08-06T00:53:05;100723.38;;;15.85;100.00
48668;BME280;34453;52.198;5.004;2023-08-06T00:55:30;100732.47;;;15.82;100.00
48668;BME280;34453;52.198;5.004;2023-08-06T00:57:56;100727.91;;;15.76;100.00
48668;BME280;34453;52.198;5.004;2023-08-06T01:00:22;100725.09;;;15.78;100.00
48668;BME280;34453;52.198;5.004;2023-08-06T01:02:49;100723.63;;;15.75;100.00
48668;BME280;34453;52.198;5.004;2023-08-06T01:05:14;100722.63;;;15.76;100.00
48668;BME280;34453;52.198;5.004;2023-08-06T01:08:03;100728.09;;;15.74;100.00
48668;BME280;34453;52.198;5.004;2023-08-06T01:10:40;100723.00;;;15.73;100.00
48668;BME280;34453;52.198;5.004;2023-08-06T01:16:09;100727.09;;;15.75;100.00
48668;BME280;34453;52.198;5.004;2023-08-06T01:18:35;100725.47;;;15.74;100.00
48668;BME280;34453;52.198;5.004;2023-08-06T01:21:02;100722.16;;;15.72;100.00
48668;BME280;34453;52.198;5.004;2023-08-06T01:23:28;100719.16;;;15.75;100.00
48668;BME280;34453;52.198;5.004;2023-08-06T01:26:00;100714.91;;;15.74;100.00
48668;BME280;34453;52.198;5.004;2023-08-06T01:31:19;100718.84;;;15.79;100.00
48668;BME280;34453;52.198;5.004;2023-08-06T01:33:47;100720.63;;;15.78;100.00
48668;BME280;34453;52.198;5.004;2023-08-06T01:36:16;100709.91;;;15.80;100.00
48668;BME280;34453;52.198;5.004;2023-08-06T01:38:43;100716.00;;;15.80;100.00
48668;BME280;34453;52.198;5.004;2023-08-06T01:41:09;100716.19;;;15.79;100.00
48668;BME280;34453;52.198;5.004;2023-08-06T01:43:34;100721.81;;;15.75;100.00
48668;BME280;34453;52.198;5.004;2023-08-06T01:46:00;100713.44;;;15.72;100.00
48668;BME280;34453;52.198;5.004;2023-08-06T01:48:25;100718.72;;;15.72;100.00
48668;BME280;34453;52.198;5.004;2023-08-06T01:50:50;100711.47;;;15.74;100.00
48668;BME280;34453;52.198;5.004;2023-08-06T01:53:16;100714.56;;;15.69;100.00
48668;BME280;34453;52.198;5.004;2023-08-06T01:55:41;100712.19;;;15.60;100.00
48668;BME280;34453;52.198;5.004;2023-08-06T01:58:06;100710.34;;;15.60;100.00
48668;BME280;34453;52.198;5.004;2023-08-06T02:00:32;100709.81;;;15.65;100.00
48668;BME280;34453;52.198;5.004;2023-08-06T02:02:57;100715.56;;;15.68;100.00
48668;BME280;34453;52.198;5.004;2023-08-06T02:05:23;100711.94;;;15.69;100.00
48668;BME280;34453;52.198;5.004;2023-08-06T02:07:48;100712.47;;;15.65;100.00
48668;BME280;34453;52.198;5.004;2023-08-06T02:10:13;100719.94;;;15.61;100.00
48668;BME280;34453;52.198;5.004;2023-08-06T02:12:39;100717.56;;;15.66;100.00
48668;BME280;34453;52.198;5.004;2023-08-06T02:15:05;100728.09;;;15.74;100.00
48668;BME280;34453;52.198;5.004;2023-08-06T02:17:30;100734.00;;;15.77;100.00
48668;BME280;34453;52.198;5.004;2023-08-06T02:19:56;100745.53;;;15.75;100.00
48668;BME280;34453;52.198;5.004;2023-08-06T02:22:21;100739.63;;;15.73;100.00
48668;BME280;34453;52.198;5.004;2023-08-06T02:24:49;100741.63;;;15.71;100.00
48668;BME280;34453;52.198;5.004;2023-08-06T02:27:14;100737.03;;;15.65;100.00
48668;BME280;34453;52.198;5.004;2023-08-06T02:29:40;100738.66;;;15.66;100.00
48668;BME280;34453;52.198;5.004;2023-08-06T02:32:06;100749.22;;;15.66;100.00
48668;BME280;34453;52.198;5.004;2023-08-06T02:34:32;100746.09;;;15.63;100.00
48668;BME280;34453;52.198;5.004;2023-08-06T02:36:57;100745.94;;;15.64;100.00
48668;BME280;34453;52.198;5.004;2023-08-06T02:39:23;100743.47;;;15.63;100.00
48668;BME280;34453;52.198;5.004;2023-08-06T02:41:48;100749.22;;;15.66;100.00
48668;BME280;34453;52.198;5.004;2023-08-06T02:44:13;100756.31;;;15.66;100.00
48668;BME280;34453;52.198;5.004;2023-08-06T02:46:39;100752.22;;;15.63;100.00
48668;BME280;34453;52.198;5.004;2023-08-06T02:49:04;100740.00;;;15.62;100.00
48668;BME280;34453;52.198;5.004;2023-08-06T02:51:30;100751.56;;;15.61;100.00
48668;BME280;34453;52.198;5.004;2023-08-06T02:53:55;100742.47;;;15.64;100.00
48668;BME280;34453;52.198;5.004;2023-08-06T02:56:20;100748.56;;;15.64;100.00
48668;BME280;34453;52.198;5.004;2023-08-06T02:58:46;100749.38;;;15.65;100.00
48668;BME280;34453;52.198;5.004;2023-08-06T03:01:11;100752.22;;;15.63;100.00
48668;BME280;34453;52.198;5.004;2023-08-06T03:03:37;100742.66;;;15.62;100.00
48668;BME280;34453;52.198;5.004;2023-08-06T03:06:02;100747.91;;;15.62;100.00
48668;BME280;34453;52.198;5.004;2023-08-06T03:08:28;100747.59;;;15.65;100.00
48668;BME280;34453;52.198;5.004;2023-08-06T03:10:54;100751.03;;;15.66;100.00
48668;BME280;34453;52.198;5.004;2023-08-06T03:13:19;100754.22;;;15.61;100.00
48668;BME280;34453;52.198;5.004;2023-08-06T03:15:58;100747.91;;;15.62;100.00
48668;BME280;34453;52.198;5.004;2023-08-06T03:18:24;100754.84;;;15.63;100.00
48668;BME280;34453;52.198;5.004;2023-08-06T03:20:51;100754.50;;;15.66;100.00
48668;BME280;34453;52.198;5.004;2023-08-06T03:23:16;100762.03;;;15.69;100.00
48668;BME280;34453;52.198;5.004;2023-08-06T03:25:42;100752.50;;;15.68;100.00
48668;BME280;34453;52.198;5.004;2023-08-06T03:28:07;100760.56;;;15.75;100.00
48668;BME280;34453;52.198;5.004;2023-08-06T03:30:33;100758.56;;;15.77;100.00
48668;BME280;34453;52.198;5.004;2023-08-06T03:32:58;100761.66;;;15.81;100.00
48668;BME280;34453;52.198;5.004;2023-08-06T03:35:23;100761.31;;;15.84;100.00
48668;BME280;34453;52.198;5.004;2023-08-06T03:37:49;100764.22;;;15.89;100.00
48668;BME280;34453;52.198;5.004;2023-08-06T03:40:15;100762.94;;;15.85;100.00
48668;BME280;34453;52.198;5.004;2023-08-06T03:42:40;100762.94;;;15.85;100.00
48668;BME280;34453;52.198;5.004;2023-08-06T03:45:06;100757.22;;;15.81;100.00
48668;BME280;34453;52.198;5.004;2023-08-06T03:47:32;100758.56;;;15.77;100.00
48668;BME280;34453;52.198;5.004;2023-08-06T03:49:58;100757.91;;;15.75;100.00
48668;BME280;34453;52.198;5.004;2023-08-06T03:52:23;100760.38;;;15.77;100.00
48668;BME280;34453;52.198;5.004;2023-08-06T03:54:48;100752.47;;;15.77;100.00
48668;BME280;34453;52.198;5.004;2023-08-06T03:57:14;100754.13;;;15.69;100.00
48668;BME280;34453;52.198;5.004;2023-08-06T03:59:39;100758.41;;;15.70;100.00
48668;BME280;34453;52.198;5.004;2023-08-06T04:02:05;100753.69;;;15.66;100.00
48668;BME280;34453;52.198;5.004;2023-08-06T04:04:30;100760.25;;;15.70;100.00
48668;BME280;34453;52.198;5.004;2023-08-06T04:06:55;100761.19;;;15.77;100.00
48668;BME280;34453;52.198;5.004;2023-08-06T04:09:21;100756.91;;;15.76;100.00
48668;BME280;34453;52.198;5.004;2023-08-06T04:11:46;100769.13;;;15.77;100.00
48668;BME280;34453;52.198;5.004;2023-08-06T04:14:12;100768.94;;;15.79;100.00
48668;BME280;34453;52.198;5.004;2023-08-06T04:16:37;100773.69;;;15.83;100.00
48668;BME280;34453;52.198;5.004;2023-08-06T04:19:02;100776.44;;;15.90;100.00
48668;BME280;34453;52.198;5.004;2023-08-06T04:21:28;100770.44;;;15.96;100.00
48668;BME280;34453;52.198;5.004;2023-08-06T04:23:53;100773.28;;;15.94;100.00
48668;BME280;34453;52.198;5.004;2023-08-06T04:26:19;100783.47;;;15.98;100.00
48668;BME280;34453;52.198;5.004;2023-08-06T04:28:44;100783.81;;;15.94;100.00
48668;BME280;34453;52.198;5.004;2023-08-06T04:31:09;100785.50;;;15.87;100.00
48668;BME280;34453;52.198;5.004;2023-08-06T04:33:35;100781.25;;;15.86;100.00
48668;BME280;34453;52.198;5.004;2023-08-06T04:36:00;100779.06;;;15.90;100.00
48668;BME280;34453;52.198;5.004;2023-08-06T04:38:26;100782.97;;;15.94;100.00
48668;BME280;34453;52.198;5.004;2023-08-06T04:40:52;100793.19;;;15.97;100.00
48668;BME280;34453;52.198;5.004;2023-08-06T04:43:18;100786.09;;;15.98;100.00
48668;BME280;34453;52.198;5.004;2023-08-06T04:45:47;100793.66;;;16.01;100.00
48668;BME280;34453;52.198;5.004;2023-08-06T04:48:13;100798.09;;;16.00;100.00
48668;BME280;34453;52.198;5.004;2023-08-06T04:50:43;100795.13;;;16.03;100.00
48668;BME280;34453;52.198;5.004;2023-08-06T04:53:08;100794.13;;;16.04;100.00
48668;BME280;34453;52.198;5.004;2023-08-06T04:55:34;100785.56;;;16.02;100.00
48668;BME280;34453;52.198;5.004;2023-08-06T04:57:59;100782.28;;;16.00;100.00
48668;BME280;34453;52.198;5.004;2023-08-06T05:00:24;100787.38;;;16.02;100.00
48668;BME280;34453;52.198;5.004;2023-08-06T05:02:50;100787.09;;;15.97;100.00
48668;BME280;34453;52.198;5.004;2023-08-06T05:05:15;100790.66;;;15.81;100.00
48668;BME280;34453;52.198;5.004;2023-08-06T05:07:41;100785.31;;;15.66;100.00
48668;BME280;34453;52.198;5.004;2023-08-06T05:10:06;100783.09;;;15.54;100.00
48668;BME280;34453;52.198;5.004;2023-08-06T05:12:32;100778.16;;;15.51;100.00
48668;BME280;34453;52.198;5.004;2023-08-06T05:14:57;100772.44;;;15.48;100.00
48668;BME280;34453;52.198;5.004;2023-08-06T05:17:22;100762.84;;;15.47;100.00
48668;BME280;34453;52.198;5.004;2023-08-06T05:19:49;100764.56;;;15.40;100.00
48668;BME280;34453;52.198;5.004;2023-08-06T05:22:15;100765.25;;;15.33;100.00
48668;BME280;34453;52.198;5.004;2023-08-06T05:24:40;100756.94;;;15.22;100.00
48668;BME280;34453;52.198;5.004;2023-08-06T05:27:05;100762.69;;;15.25;100.00
48668;BME280;34453;52.198;5.004;2023-08-06T05:29:31;100773.00;;;15.35;100.00
48668;BME280;34453;52.198;5.004;2023-08-06T05:31:56;100781.31;;;15.47;100.00
48668;BME280;34453;52.198;5.004;2023-08-06T05:34:22;100794.34;;;15.48;100.00
48668;BME280;34453;52.198;5.004;2023-08-06T05:36:47;100791.22;;;15.45;100.00
48668;BME280;34453;52.198;5.004;2023-08-06T05:39:12;100786.69;;;15.30;100.00
48668;BME280;34453;52.198;5.004;2023-08-06T05:41:38;100779.75;;;15.29;100.00
48668;BME280;34453;52.198;5.004;2023-08-06T05:44:04;100780.50;;;15.15;100.00
48668;BME280;34453;52.198;5.004;2023-08-06T05:46:29;100779.22;;;15.11;100.00
48668;BME280;34453;52.198;5.004;2023-08-06T05:48:54;100782.50;;;15.13;100.00
48668;BME280;34453;52.198;5.004;2023-08-06T05:51:20;100790.47;;;14.97;100.00
48668;BME280;34453;52.198;5.004;2023-08-06T05:53:45;100786.03;;;14.97;100.00
48668;BME280;34453;52.198;5.004;2023-08-06T05:56:12;100788.81;;;15.04;100.00
48668;BME280;34453;52.198;5.004;2023-08-06T05:58:37;100792.75;;;15.00;100.00
48668;BME280;34453;52.198;5.004;2023-08-06T06:01:03;100792.13;;;14.98;100.00
48668;BME280;34453;52.198;5.004;2023-08-06T06:03:28;100800.00;;;14.98;100.00
48668;BME280;34453;52.198;5.004;2023-08-06T06:05:53;100809.53;;;15.07;100.00
48668;BME280;34453;52.198;5.004;2023-08-06T06:08:19;100812.81;;;15.09;100.00
48668;BME280;34453;52.198;5.004;2023-08-06T06:10:44;100818.44;;;14.98;100.00
48668;BME280;34453;52.198;5.004;2023-08-06T06:13:10;100821.59;;;14.93;100.00
48668;BME280;34453;52.198;5.004;2023-08-06T06:15:35;100813.22;;;14.89;100.00
48668;BME280;34453;52.198;5.004;2023-08-06T06:18:00;100828.03;;;14.99;100.00
48668;BME280;34453;52.198;5.004;2023-08-06T06:20:26;100824.88;;;15.03;100.00
48668;BME280;34453;52.198;5.004;2023-08-06T06:22:51;100827.00;;;15.00;100.00
48668;BME280;34453;52.198;5.004;2023-08-06T06:25:17;100826.03;;;15.01;100.00
48668;BME280;34453;52.198;5.004;2023-08-06T06:27:42;100831.31;;;15.01;100.00
48668;BME280;34453;52.198;5.004;2023-08-06T06:30:08;100828.81;;;15.07;100.00
48668;BME280;34453;52.198;5.004;2023-08-06T06:32:33;100845.06;;;15.19;100.00
48668;BME280;34453;52.198;5.004;2023-08-06T06:34:59;100848.38;;;15.13;100.00
48668;BME280;34453;52.198;5.004;2023-08-06T06:37:25;100853.28;;;15.16;100.00
48668;BME280;34453;52.198;5.004;2023-08-06T06:39:50;100854.59;;;15.20;100.00
48668;BME280;34453;52.198;5.004;2023-08-06T06:42:16;100859.53;;;15.23;100.00
48668;BME280;34453;52.198;5.004;2023-08-06T06:44:41;100865.63;;;15.24;100.00
48668;BME280;34453;52.198;5.004;2023-08-06T06:47:07;100869.38;;;15.29;100.00
48668;BME280;34453;52.198;5.004;2023-08-06T06:49:32;100871.84;;;15.31;100.00
48668;BME280;34453;52.198;5.004;2023-08-06T06:51:58;100876.47;;;15.29;100.00
48668;BME280;34453;52.198;5.004;2023-08-06T06:54:23;100876.16;;;15.24;100.00
48668;BME280;34453;52.198;5.004;2023-08-06T06:56:48;100868.25;;;15.24;100.00
48668;BME280;34453;52.198;5.004;2023-08-06T06:59:14;100864.47;;;15.18;100.00
48668;BME280;34453;52.198;5.004;2023-08-06T07:01:39;100865.34;;;15.10;100.00
48668;BME280;34453;52.198;5.004;2023-08-06T07:04:05;100862.56;;;15.12;100.00
48668;BME280;34453;52.198;5.004;2023-08-06T07:06:31;100859.88;;;15.20;100.00
48668;BME280;34453;52.198;5.004;2023-08-06T07:08:56;100853.78;;;15.20;100.00
48668;BME280;34453;52.198;5.004;2023-08-06T07:11:22;100847.34;;;15.22;100.00
48668;BME280;34453;52.198;5.004;2023-08-06T07:13:47;100843.03;;;15.29;100.00
48668;BME280;34453;52.198;5.004;2023-08-06T07:16:12;100845.34;;;15.32;100.00
48668;BME280;34453;52.198;5.004;2023-08-06T07:18:38;100850.59;;;15.32;100.00
48668;BME280;34453;52.198;5.004;2023-08-06T07:21:03;100836.94;;;15.29;100.00
48668;BME280;34453;52.198;5.004;2023-08-06T07:23:29;100842.69;;;15.32;100.00
48668;BME280;34453;52.198;5.004;2023-08-06T07:25:54;100840.22;;;15.31;100.00
48668;BME280;34453;52.198;5.004;2023-08-06T07:28:22;100832.81;;;15.34;100.00
48668;BME280;34453;52.198;5.004;2023-08-06T07:30:51;100846.78;;;15.43;100.00
48668;BME280;34453;52.198;5.004;2023-08-06T07:33:17;100839.50;;;15.45;100.00
48668;BME280;34453;52.198;5.004;2023-08-06T07:35:42;100849.19;;;15.53;100.00
48668;BME280;34453;52.198;5.004;2023-08-06T07:38:08;100843.09;;;15.52;100.00
48668;BME280;34453;52.198;5.004;2023-08-06T07:40:35;100849.34;;;15.51;100.00
48668;BME280;34453;52.198;5.004;2023-08-06T07:43:01;100844.84;;;15.60;100.00
48668;BME280;34453;52.198;5.004;2023-08-06T07:45:27;100847.03;;;15.57;100.00
48668;BME280;34453;52.198;5.004;2023-08-06T07:47:53;100855.63;;;15.50;100.00
48668;BME280;34453;52.198;5.004;2023-08-06T07:50:19;100854.09;;;15.56;100.00
48668;BME280;34453;52.198;5.004;2023-08-06T07:52:44;100855.78;;;15.49;100.00
48668;BME280;34453;52.198;5.004;2023-08-06T07:55:09;100863.69;;;15.49;100.00
48668;BME280;34453;52.198;5.004;2023-08-06T07:57:35;100861.75;;;15.43;100.00
48668;BME280;34453;52.198;5.004;2023-08-06T08:00:01;100863.69;;;15.49;100.00
48668;BME280;34453;52.198;5.004;2023-08-06T08:02:27;100865.00;;;15.53;100.00
48668;BME280;34453;52.198;5.004;2023-08-06T08:04:53;100862.75;;;15.42;100.00
48668;BME280;34453;52.198;5.004;2023-08-06T08:07:18;100868.28;;;15.55;100.00
48668;BME280;34453;52.198;5.004;2023-08-06T08:09:44;100867.59;;;15.61;100.00
48668;BME280;34453;52.198;5.004;2023-08-06T08:12:09;100864.78;;;15.63;100.00
48668;BME280;34453;52.198;5.004;2023-08-06T08:14:37;100866.00;;;15.52;100.00
48668;BME280;34453;52.198;5.004;2023-08-06T08:17:03;100860.06;;;15.50;100.00
48668;BME280;34453;52.198;5.004;2023-08-06T08:19:29;100865.69;;;15.47;100.00
48668;BME280;34453;52.198;5.004;2023-08-06T08:21:55;100857.59;;;15.48;100.00
48668;BME280;34453;52.198;5.004;2023-08-06T08:24:21;100865.03;;;15.45;100.00
48668;BME280;34453;52.198;5.004;2023-08-06T08:26:52;100865.09;;;15.37;100.00
48668;BME280;34453;52.198;5.004;2023-08-06T08:29:19;100865.22;;;15.43;100.00
48668;BME280;34453;52.198;5.004;2023-08-06T08:31:45;100876.09;;;15.40;100.00
48668;BME280;34453;52.198;5.004;2023-08-06T08:34:10;100871.00;;;15.39;100.00
48668;BME280;34453;52.198;5.004;2023-08-06T08:36:36;100873.28;;;15.42;100.00
48668;BME280;34453;52.198;5.004;2023-08-06T08:39:01;100883.16;;;15.48;100.00
48668;BME280;34453;52.198;5.004;2023-08-06T08:41:31;100883.81;;;15.50;100.00
48668;BME280;34453;52.198;5.004;2023-08-06T08:43:58;100883.16;;;15.48;100.00
48668;BME280;34453;52.198;5.004;2023-08-06T08:46:29;100886.59;;;15.48;100.00
48668;BME280;34453;52.198;5.004;2023-08-06T08:48:56;100897.03;;;15.42;100.00
48668;BME280;34453;52.198;5.004;2023-08-06T08:51:26;100886.78;;;15.47;100.00
48668;BME280;34453;52.198;5.004;2023-08-06T08:53:53;100891.75;;;15.42;100.00
48668;BME280;34453;52.198;5.004;2023-08-06T08:56:21;100902.94;;;15.44;100.00
48668;BME280;34453;52.198;5.004;2023-08-06T08:58:47;100907.88;;;15.47;100.00
48668;BME280;34453;52.198;5.004;2023-08-06T09:01:14;100911.50;;;15.46;100.00
48668;BME280;34453;52.198;5.004;2023-08-06T09:03:40;100910.19;;;15.50;100.00
48668;BME280;34453;52.198;5.004;2023-08-06T09:06:06;100914.13;;;15.54;100.00
48668;BME280;34453;52.198;5.004;2023-08-06T09:08:39;100930.25;;;15.51;100.00
48668;BME280;34453;52.198;5.004;2023-08-06T09:11:09;100923.81;;;15.53;100.00
48668;BME280;34453;52.198;5.004;2023-08-06T09:13:36;100930.25;;;15.59;100.00
48668;BME280;34453;52.198;5.004;2023-08-06T09:16:02;100938.75;;;15.69;100.00
48668;BME280;34453;52.198;5.004;2023-08-06T09:18:31;100942.56;;;15.75;100.00
48668;BME280;34453;52.198;5.004;2023-08-06T09:20:57;100939.25;;;15.73;100.00
48668;BME280;34453;52.198;5.004;2023-08-06T09:23:32;100950.31;;;15.77;100.00
48668;BME280;34453;52.198;5.004;2023-08-06T09:25:59;100954.53;;;15.86;100.00
48668;BME280;34453;52.198;5.004;2023-08-06T09:28:35;100957.47;;;15.91;100.00
48668;BME280;34453;52.198;5.004;2023-08-06T09:31:01;100966.59;;;15.80;100.00
48668;BME280;34453;52.198;5.004;2023-08-06T09:33:29;100959.50;;;15.81;100.00
48668;BME280;34453;52.198;5.004;2023-08-06T09:35:54;100968.72;;;15.85;100.00
48668;BME280;34453;52.198;5.004;2023-08-06T09:38:20;100972.94;;;15.94;100.00
48668;BME280;34453;52.198;5.004;2023-08-06T09:40:47;100965.03;;;15.94;100.00
48668;BME280;34453;52.198;5.004;2023-08-06T09:43:12;100974.25;;;15.98;100.00
48668;BME280;34453;52.198;5.004;2023-08-06T09:45:39;100974.91;;;16.00;100.00
48668;BME280;34453;52.198;5.004;2023-08-06T09:48:06;100975.84;;;16.07;100.00
48668;BME280;34453;52.198;5.004;2023-08-06T09:50:33;100977.78;;;16.13;100.00
48668;BME280;34453;52.198;5.004;2023-08-06T09:53:02;100988.53;;;16.12;100.00
48668;BME280;34453;52.198;5.004;2023-08-06T09:55:28;100992.16;;;16.11;100.00
48668;BME280;34453;52.198;5.004;2023-08-06T09:57:54;100986.06;;;16.10;100.00
48668;BME280;34453;52.198;5.004;2023-08-06T10:00:20;100992.81;;;16.13;100.00
48668;BME280;34453;52.198;5.004;2023-08-06T10:02:46;100984.38;;;16.17;100.00
48668;BME280;34453;52.198;5.004;2023-08-06T10:05:13;100984.22;;;16.19;100.00
48668;BME280;34453;52.198;5.004;2023-08-06T10:07:39;100988.31;;;16.22;100.00
48668;BME280;34453;52.198;5.004;2023-08-06T10:10:06;100988.16;;;16.23;100.00
48668;BME280;34453;52.198;5.004;2023-08-06T10:12:34;100986.78;;;16.27;100.00
48668;BME280;34453;52.198;5.004;2023-08-06T10:15:03;100985.78;;;16.28;100.00
48668;BME280;34453;52.198;5.004;2023-08-06T10:17:31;100980.22;;;16.23;100.00
48668;BME280;34453;52.198;5.004;2023-08-06T10:19:58;100971.66;;;16.21;100.00
48668;BME280;34453;52.198;5.004;2023-08-06T10:22:24;100969.72;;;16.38;100.00
48668;BME280;34453;52.198;5.004;2023-08-06T10:24:58;100965.50;;;16.52;100.00
48668;BME280;34453;52.198;5.004;2023-08-06T10:27:31;100971.28;;;16.47;100.00
48668;BME280;34453;52.198;5.004;2023-08-06T10:30:26;100967.78;;;16.32;100.00
48668;BME280;34453;52.198;5.004;2023-08-06T10:32:57;100960.81;;;16.39;100.00
48668;BME280;34453;52.198;5.004;2023-08-06T10:38:17;100957.81;;;16.42;100.00
48668;BME280;34453;52.198;5.004;2023-08-06T10:41:01;100961.50;;;16.56;100.00
48668;BME280;34453;52.198;5.004;2023-08-06T10:43:35;100955.97;;;16.66;100.00
48668;BME280;34453;52.198;5.004;2023-08-06T10:46:02;100958.31;;;16.61;100.00
48668;BME280;34453;52.198;5.004;2023-08-06T10:50:56;100961.50;;;16.56;100.00
48668;BME280;34453;52.198;5.004;2023-08-06T10:53:21;100957.28;;;16.70;100.00
48668;BME280;34453;52.198;5.004;2023-08-06T10:55:47;100960.13;;;16.60;100.00
48668;BME280;34453;52.198;5.004;2023-08-06T10:58:15;100965.38;;;16.45;100.00
48668;BME280;34453;52.198;5.004;2023-08-06T11:00:41;100968.84;;;16.46;100.00
48668;BME280;34453;52.198;5.004;2023-08-06T11:03:08;100967.31;;;16.51;100.00
48668;BME280;34453;52.198;5.004;2023-08-06T11:05:34;100954.09;;;16.51;100.00
48668;BME280;34453;52.198;5.004;2023-08-06T11:07:59;100968.59;;;16.55;100.00
48668;BME280;34453;52.198;5.004;2023-08-06T11:10:25;100965.63;;;16.58;100.00
48668;BME280;34453;52.198;5.004;2023-08-06T11:12:50;100966.31;;;16.52;100.00
48668;BME280;34453;52.198;5.004;2023-08-06T11:15:16;100965.16;;;16.32;100.00
48668;BME280;34453;52.198;5.004;2023-08-06T11:17:41;100970.06;;;16.35;100.00
48668;BME280;34453;52.198;5.004;2023-08-06T11:20:07;100971.38;;;16.39;100.00
48668;BME280;34453;52.198;5.004;2023-08-06T11:22:33;100978.97;;;16.34;100.00
48668;BME280;34453;52.198;5.004;2023-08-06T11:24:59;100984.63;;;16.31;100.00
48668;BME280;34453;52.198;5.004;2023-08-06T11:27:26;100979.22;;;16.24;100.00
48668;BME280;34453;52.198;5.004;2023-08-06T11:29:53;100977.88;;;16.28;100.00
48668;BME280;34453;52.198;5.004;2023-08-06T11:32:19;100978.03;;;16.27;100.00
48668;BME280;34453;52.198;5.004;2023-08-06T11:34:44;100984.34;;;16.26;100.00
48668;BME280;34453;52.198;5.004;2023-08-06T11:37:10;100985.91;;;16.35;100.00
48668;BME280;34453;52.198;5.004;2023-08-06T11:39:37;100985.31;;;16.25;100.00
48668;BME280;34453;52.198;5.004;2023-08-06T11:42:03;100987.22;;;16.39;100.00
48668;BME280;34453;52.198;5.004;2023-08-06T11:44:35;100992.50;;;16.39;100.00
48668;BME280;34453;52.198;5.004;2023-08-06T11:47:04;100984.44;;;16.32;100.00
48668;BME280;34453;52.198;5.004;2023-08-06T11:49:44;100991.03;;;16.36;100.00
48668;BME280;34453;52.198;5.004;2023-08-06T11:52:11;100983.28;;;16.35;100.00
48668;BME280;34453;52.198;5.004;2023-08-06T11:54:37;100989.59;;;16.26;100.00
48668;BME280;34453;52.198;5.004;2023-08-06T11:57:05;100986.28;;;16.32;100.00
48668;BME280;34453;52.198;5.004;2023-08-06T11:59:31;100988.59;;;16.27;100.00
48668;BME280;34453;52.198;5.004;2023-08-06T12:01:57;100991.47;;;16.40;100.00
48668;BME280;34453;52.198;5.004;2023-08-06T12:04:23;100997.41;;;16.42;100.00
48668;BME280;34453;52.198;5.004;2023-08-06T12:06:48;100995.41;;;16.44;100.00
48668;BME280;34453;52.198;5.004;2023-08-06T12:09:14;100999.06;;;16.43;100.00
48668;BME280;34453;52.198;5.004;2023-08-06T12:11:39;101001.34;;;16.46;100.00
48668;BME280;34453;52.198;5.004;2023-08-06T12:14:04;101011.03;;;16.54;100.00
48668;BME280;34453;52.198;5.004;2023-08-06T12:16:30;101008.69;;;16.59;100.00
48668;BME280;34453;52.198;5.004;2023-08-06T12:18:55;101001.75;;;16.58;100.00
48668;BME280;34453;52.198;5.004;2023-08-06T12:21:21;101006.50;;;16.63;100.00
48668;BME280;34453;52.198;5.004;2023-08-06T12:23:46;101001.53;;;16.68;100.00
48668;BME280;34453;52.198;5.004;2023-08-06T12:26:11;101004.09;;;16.76;100.00
48668;BME280;34453;52.198;5.004;2023-08-06T12:28:37;101005.81;;;16.92;100.00
48668;BME280;34453;52.198;5.004;2023-08-06T12:31:02;101005.63;;;16.93;100.00
48668;BME280;34453;52.198;5.004;2023-08-06T12:33:28;101005.19;;;16.90;100.00
48668;BME280;34453;52.198;5.004;2023-08-06T12:35:53;101000.63;;;16.75;100.00
48668;BME280;34453;52.198;5.004;2023-08-06T12:38:20;101004.09;;;16.76;100.00
48668;BME280;34453;52.198;5.004;2023-08-06T12:40:46;101001.97;;;16.71;100.00
48668;BME280;34453;52.198;5.004;2023-08-06T12:43:11;100999.00;;;16.74;100.00
48668;BME280;34453;52.198;5.004;2023-08-06T12:45:37;101001.78;;;16.81;100.00
48668;BME280;34453;52.198;5.004;2023-08-06T12:48:03;101011.44;;;16.66;100.00